sensor_id;sensor_type;location;lat;lon;timestamp;P1;durP1;ratioP1;P2;durP2;ratioP2
30593;SDS011;33199;47.590;8.300;2022-08-01T00:00:20;0.47;;;0.47;;
30593;SDS011;33199;47.590;8.300;2022-08-01T00:02:45;1.27;;;0.60;;
30593;SDS011;33199;47.590;8.300;2022-08-01T00:05:11;0.50;;;0.50;;
30593;SDS011;33199;47.590;8.300;2022-08-01T00:07:37;0.60;;;0.60;;
30593;SDS011;33199;47.590;8.300;2022-08-01T00:10:04;0.70;;;0.70;;
30593;SDS011;33199;47.590;8.300;2022-08-01T00:12:31;0.45;;;0.45;;
30593;SDS011;33199;47.590;8.300;2022-08-01T00:14:57;0.50;;;0.50;;
30593;SDS011;33199;47.590;8.300;2022-08-01T00:17:23;0.50;;;0.50;;
30593;SDS011;33199;47.590;8.300;2022-08-01T00:19:48;0.90;;;0.60;;
30593;SDS011;33199;47.590;8.300;2022-08-01T00:22:14;0.60;;;0.60;;
30593;SDS011;33199;47.590;8.300;2022-08-01T00:24:39;0.47;;;0.47;;
30593;SDS011;33199;47.590;8.300;2022-08-01T00:27:05;0.60;;;0.60;;
30593;SDS011;33199;47.590;8.300;2022-08-01T00:29:31;0.50;;;0.50;;
30593;SDS011;33199;47.590;8.300;2022-08-01T00:31:56;0.50;;;0.50;;
30593;SDS011;33199;47.590;8.300;2022-08-01T00:34:22;0.40;;;0.40;;
30593;SDS011;33199;47.590;8.300;2022-08-01T00:36:47;0.50;;;0.50;;
30593;SDS011;33199;47.590;8.300;2022-08-01T00:39:13;0.55;;;0.55;;
30593;SDS011;33199;47.590;8.300;2022-08-01T00:41:38;0.60;;;0.60;;
30593;SDS011;33199;47.590;8.300;2022-08-01T00:44:04;0.55;;;0.55;;
30593;SDS011;33199;47.590;8.300;2022-08-01T00:46:31;0.60;;;0.60;;
30593;SDS011;33199;47.590;8.300;2022-08-01T00:48:57;0.50;;;0.50;;
30593;SDS011;33199;47.590;8.300;2022-08-01T00:51:24;0.50;;;0.47;;
30593;SDS011;33199;47.590;8.300;2022-08-01T00:53:50;0.50;;;0.50;;
30593;SDS011;33199;47.590;8.300;2022-08-01T00:56:16;0.60;;;0.60;;
30593;SDS011;33199;47.590;8.300;2022-08-01T00:58:42;0.60;;;0.60;;
30593;SDS011;33199;47.590;8.300;2022-08-01T01:01:08;0.50;;;0.50;;
30593;SDS011;33199;47.590;8.300;2022-08-01T01:03:34;3.10;;;0.43;;
30593;SDS011;33199;47.590;8.300;2022-08-01T01:11:40;0.57;;;0.57;;
30593;SDS011;33199;47.590;8.300;2022-08-01T01:14:19;0.50;;;0.50;;
30593;SDS011;33199;47.590;8.300;2022-08-01T01:16:50;0.60;;;0.60;;
30593;SDS011;33199;47.590;8.300;2022-08-01T01:19:21;0.40;;;0.40;;
30593;SDS011;33199;47.590;8.300;2022-08-01T01:24:30;0.50;;;0.50;;
30593;SDS011;33199;47.590;8.300;2022-08-01T01:27:24;1.05;;;0.57;;
30593;SDS011;33199;47.590;8.300;2022-08-01T01:30:01;0.65;;;0.63;;
30593;SDS011;33199;47.590;8.300;2022-08-01T01:35:00;0.50;;;0.50;;
30593;SDS011;33199;47.590;8.300;2022-08-01T01:37:40;0.70;;;0.60;;
30593;SDS011;33199;47.590;8.300;2022-08-01T01:40:09;0.40;;;0.40;;
30593;SDS011;33199;47.590;8.300;2022-08-01T01:42:36;0.45;;;0.45;;
30593;SDS011;33199;47.590;8.300;2022-08-01T01:45:03;0.60;;;0.60;;
30593;SDS011;33199;47.590;8.300;2022-08-01T01:47:30;0.50;;;0.43;;
30593;SDS011;33199;47.590;8.300;2022-08-01T01:49:57;0.40;;;0.40;;
30593;SDS011;33199;47.590;8.300;2022-08-01T01:52:25;0.40;;;0.40;;
30593;SDS011;33199;47.590;8.300;2022-08-01T01:54:52;0.60;;;0.60;;
30593;SDS011;33199;47.590;8.300;2022-08-01T01:57:20;1.85;;;0.40;;
30593;SDS011;33199;47.590;8.300;2022-08-01T01:59:47;0.60;;;0.60;;
30593;SDS011;33199;47.590;8.300;2022-08-01T02:02:16;0.50;;;0.50;;
30593;SDS011;33199;47.590;8.300;2022-08-01T02:04:43;0.50;;;0.50;;
30593;SDS011;33199;47.590;8.300;2022-08-01T02:07:13;0.50;;;0.50;;
30593;SDS011;33199;47.590;8.300;2022-08-01T02:09:42;0.60;;;0.60;;
30593;SDS011;33199;47.590;8.300;2022-08-01T02:14:37;0.47;;;0.47;;
30593;SDS011;33199;47.590;8.300;2022-08-01T02:17:05;0.55;;;0.55;;
30593;SDS011;33199;47.590;8.300;2022-08-01T02:19:31;0.57;;;0.57;;
30593;SDS011;33199;47.590;8.300;2022-08-01T02:22:06;0.50;;;0.50;;
30593;SDS011;33199;47.590;8.300;2022-08-01T02:24:40;0.40;;;0.40;;
30593;SDS011;33199;47.590;8.300;2022-08-01T02:27:24;0.40;;;0.40;;
30593;SDS011;33199;47.590;8.300;2022-08-01T02:29:58;0.57;;;0.57;;
30593;SDS011;33199;47.590;8.300;2022-08-01T02:32:33;0.60;;;0.60;;
30593;SDS011;33199;47.590;8.300;2022-08-01T02:35:03;0.73;;;0.50;;
30593;SDS011;33199;47.590;8.300;2022-08-01T02:37:34;0.60;;;0.60;;
30593;SDS011;33199;47.590;8.300;2022-08-01T02:40:03;0.60;;;0.60;;
30593;SDS011;33199;47.590;8.300;2022-08-01T02:42:30;0.50;;;0.50;;
30593;SDS011;33199;47.590;8.300;2022-08-01T02:44:59;0.50;;;0.50;;
30593;SDS011;33199;47.590;8.300;2022-08-01T02:47:28;0.60;;;0.60;;
30593;SDS011;33199;47.590;8.300;2022-08-01T02:49:55;0.60;;;0.60;;
30593;SDS011;33199;47.590;8.300;2022-08-01T02:52:23;0.77;;;0.77;;
30593;SDS011;33199;47.590;8.300;2022-08-01T02:57:18;0.47;;;0.47;;
30593;SDS011;33199;47.590;8.300;2022-08-01T02:59:46;0.55;;;0.55;;
30593;SDS011;33199;47.590;8.300;2022-08-01T03:02:14;0.73;;;0.43;;
30593;SDS011;33199;47.590;8.300;2022-08-01T03:04:41;0.60;;;0.60;;
30593;SDS011;33199;47.590;8.300;2022-08-01T03:07:09;0.43;;;0.43;;
30593;SDS011;33199;47.590;8.300;2022-08-01T03:09:38;0.50;;;0.50;;
30593;SDS011;33199;47.590;8.300;2022-08-01T03:12:07;0.50;;;0.50;;
30593;SDS011;33199;47.590;8.300;2022-08-01T03:14:38;0.60;;;0.60;;
30593;SDS011;33199;47.590;8.300;2022-08-01T03:17:06;0.90;;;0.90;;
30593;SDS011;33199;47.590;8.300;2022-08-01T03:19:33;0.70;;;0.70;;
30593;SDS011;33199;47.590;8.300;2022-08-01T03:22:00;0.52;;;0.52;;
30593;SDS011;33199;47.590;8.300;2022-08-01T03:24:28;0.50;;;0.50;;
30593;SDS011;33199;47.590;8.300;2022-08-01T03:26:56;0.60;;;0.60;;
30593;SDS011;33199;47.590;8.300;2022-08-01T03:29:24;0.57;;;0.57;;
30593;SDS011;33199;47.590;8.300;2022-08-01T03:31:52;0.70;;;0.70;;
30593;SDS011;33199;47.590;8.300;2022-08-01T03:34:18;0.60;;;0.60;;
30593;SDS011;33199;47.590;8.300;2022-08-01T03:39:14;1.30;;;0.60;;
30593;SDS011;33199;47.590;8.300;2022-08-01T03:44:14;0.50;;;0.50;;
30593;SDS011;33199;47.590;8.300;2022-08-01T03:46:46;0.40;;;0.40;;
30593;SDS011;33199;47.590;8.300;2022-08-01T03:49:32;0.60;;;0.60;;
30593;SDS011;33199;47.590;8.300;2022-08-01T03:52:02;0.60;;;0.60;;
30593;SDS011;33199;47.590;8.300;2022-08-01T03:54:32;0.88;;;0.88;;
30593;SDS011;33199;47.590;8.300;2022-08-01T03:57:00;0.60;;;0.60;;
30593;SDS011;33199;47.590;8.300;2022-08-01T03:59:27;0.60;;;0.60;;
30593;SDS011;33199;47.590;8.300;2022-08-01T04:01:53;0.55;;;0.55;;
30593;SDS011;33199;47.590;8.300;2022-08-01T04:04:20;0.50;;;0.50;;
30593;SDS011;33199;47.590;8.300;2022-08-01T04:06:46;5.15;;;1.10;;
30593;SDS011;33199;47.590;8.300;2022-08-01T04:09:16;1.60;;;1.40;;
30593;SDS011;33199;47.590;8.300;2022-08-01T04:11:41;8.55;;;1.85;;
30593;SDS011;33199;47.590;8.300;2022-08-01T04:14:07;3.00;;;1.15;;
30593;SDS011;33199;47.590;8.300;2022-08-01T04:16:33;1.27;;;1.10;;
30593;SDS011;33199;47.590;8.300;2022-08-01T04:18:59;1.90;;;1.50;;
30593;SDS011;33199;47.590;8.300;2022-08-01T04:21:25;1.73;;;1.20;;
30593;SDS011;33199;47.590;8.300;2022-08-01T04:23:52;3.95;;;1.25;;
30593;SDS011;33199;47.590;8.300;2022-08-01T04:26:21;3.30;;;1.60;;
30593;SDS011;33199;47.590;8.300;2022-08-01T04:28:48;1.13;;;1.02;;
30593;SDS011;33199;47.590;8.300;2022-08-01T04:31:16;1.70;;;1.38;;
30593;SDS011;33199;47.590;8.300;2022-08-01T04:33:46;1.55;;;1.45;;
30593;SDS011;33199;47.590;8.300;2022-08-01T04:36:14;1.00;;;1.00;;
30593;SDS011;33199;47.590;8.300;2022-08-01T04:38:45;1.58;;;1.45;;
30593;SDS011;33199;47.590;8.300;2022-08-01T04:41:13;2.30;;;1.10;;
30593;SDS011;33199;47.590;8.300;2022-08-01T04:43:40;1.48;;;1.38;;
30593;SDS011;33199;47.590;8.300;2022-08-01T04:46:07;2.90;;;1.42;;
30593;SDS011;33199;47.590;8.300;2022-08-01T04:48:34;2.05;;;1.00;;
30593;SDS011;33199;47.590;8.300;2022-08-01T04:51:02;3.30;;;1.17;;
30593;SDS011;33199;47.590;8.300;2022-08-01T04:53:28;1.60;;;1.08;;
30593;SDS011;33199;47.590;8.300;2022-08-01T04:55:57;1.40;;;1.30;;
30593;SDS011;33199;47.590;8.300;2022-08-01T04:58:22;2.03;;;1.30;;
30593;SDS011;33199;47.590;8.300;2022-08-01T05:00:48;1.80;;;1.33;;
30593;SDS011;33199;47.590;8.300;2022-08-01T05:03:14;1.55;;;1.10;;
30593;SDS011;33199;47.590;8.300;2022-08-01T05:05:39;1.70;;;1.00;;
30593;SDS011;33199;47.590;8.300;2022-08-01T05:08:05;1.52;;;1.10;;
30593;SDS011;33199;47.590;8.300;2022-08-01T05:10:31;1.83;;;1.15;;
30593;SDS011;33199;47.590;8.300;2022-08-01T05:12:56;1.83;;;1.10;;
30593;SDS011;33199;47.590;8.300;2022-08-01T05:15:22;1.52;;;1.33;;
30593;SDS011;33199;47.590;8.300;2022-08-01T05:17:47;1.52;;;1.10;;
30593;SDS011;33199;47.590;8.300;2022-08-01T05:20:13;1.23;;;1.13;;
30593;SDS011;33199;47.590;8.300;2022-08-01T05:22:39;1.30;;;1.20;;
30593;SDS011;33199;47.590;8.300;2022-08-01T05:25:05;0.85;;;0.85;;
30593;SDS011;33199;47.590;8.300;2022-08-01T05:27:31;1.05;;;0.90;;
30593;SDS011;33199;47.590;8.300;2022-08-01T05:29:57;1.10;;;1.00;;
30593;SDS011;33199;47.590;8.300;2022-08-01T05:32:23;1.00;;;1.00;;
30593;SDS011;33199;47.590;8.300;2022-08-01T05:34:48;1.65;;;1.20;;
30593;SDS011;33199;47.590;8.300;2022-08-01T05:37:14;1.95;;;1.00;;
30593;SDS011;33199;47.590;8.300;2022-08-01T05:39:40;2.10;;;0.93;;
30593;SDS011;33199;47.590;8.300;2022-08-01T05:42:06;1.55;;;1.10;;
30593;SDS011;33199;47.590;8.300;2022-08-01T05:44:31;1.55;;;0.90;;
30593;SDS011;33199;47.590;8.300;2022-08-01T05:46:57;1.00;;;1.00;;
30593;SDS011;33199;47.590;8.300;2022-08-01T05:49:22;1.00;;;1.00;;
30593;SDS011;33199;47.590;8.300;2022-08-01T05:51:48;1.00;;;1.00;;
30593;SDS011;33199;47.590;8.300;2022-08-01T05:54:14;1.05;;;1.00;;
30593;SDS011;33199;47.590;8.300;2022-08-01T05:56:39;0.77;;;0.77;;
30593;SDS011;33199;47.590;8.300;2022-08-01T05:59:05;0.93;;;0.93;;
30593;SDS011;33199;47.590;8.300;2022-08-01T06:01:31;0.90;;;0.90;;
30593;SDS011;33199;47.590;8.300;2022-08-01T06:03:56;1.65;;;0.90;;
30593;SDS011;33199;47.590;8.300;2022-08-01T06:06:22;1.02;;;0.93;;
30593;SDS011;33199;47.590;8.300;2022-08-01T06:08:48;0.80;;;0.80;;
30593;SDS011;33199;47.590;8.300;2022-08-01T06:11:14;1.23;;;0.98;;
30593;SDS011;33199;47.590;8.300;2022-08-01T06:13:39;0.75;;;0.75;;
30593;SDS011;33199;47.590;8.300;2022-08-01T06:16:05;1.13;;;1.13;;
30593;SDS011;33199;47.590;8.300;2022-08-01T06:18:30;0.90;;;0.90;;
30593;SDS011;33199;47.590;8.300;2022-08-01T06:20:56;0.90;;;0.90;;
30593;SDS011;33199;47.590;8.300;2022-08-01T06:23:22;1.27;;;0.98;;
30593;SDS011;33199;47.590;8.300;2022-08-01T06:25:47;1.10;;;1.10;;
30593;SDS011;33199;47.590;8.300;2022-08-01T06:28:13;1.00;;;1.00;;
30593;SDS011;33199;47.590;8.300;2022-08-01T06:30:39;1.52;;;1.08;;
30593;SDS011;33199;47.590;8.300;2022-08-01T06:33:04;1.27;;;0.90;;
30593;SDS011;33199;47.590;8.300;2022-08-01T06:35:30;0.95;;;0.88;;
30593;SDS011;33199;47.590;8.300;2022-08-01T06:37:56;0.90;;;0.90;;
30593;SDS011;33199;47.590;8.300;2022-08-01T06:40:22;1.45;;;1.08;;
30593;SDS011;33199;47.590;8.300;2022-08-01T06:42:48;0.80;;;0.80;;
30593;SDS011;33199;47.590;8.300;2022-08-01T06:45:14;1.27;;;1.08;;
30593;SDS011;33199;47.590;8.300;2022-08-01T06:47:40;0.80;;;0.80;;
30593;SDS011;33199;47.590;8.300;2022-08-01T06:50:07;1.00;;;1.00;;
30593;SDS011;33199;47.590;8.300;2022-08-01T06:52:34;0.65;;;0.65;;
30593;SDS011;33199;47.590;8.300;2022-08-01T06:55:00;1.35;;;1.00;;
30593;SDS011;33199;47.590;8.300;2022-08-01T06:57:26;1.08;;;0.90;;
30593;SDS011;33199;47.590;8.300;2022-08-01T06:59:52;0.90;;;0.90;;
30593;SDS011;33199;47.590;8.300;2022-08-01T07:02:18;0.80;;;0.80;;
30593;SDS011;33199;47.590;8.300;2022-08-01T07:04:44;0.90;;;0.90;;
30593;SDS011;33199;47.590;8.300;2022-08-01T07:07:10;1.10;;;1.00;;
30593;SDS011;33199;47.590;8.300;2022-08-01T07:09:35;0.80;;;0.80;;
30593;SDS011;33199;47.590;8.300;2022-08-01T07:12:01;0.85;;;0.85;;
30593;SDS011;33199;47.590;8.300;2022-08-01T07:14:28;0.70;;;0.70;;
30593;SDS011;33199;47.590;8.300;2022-08-01T07:16:53;2.47;;;0.85;;
30593;SDS011;33199;47.590;8.300;2022-08-01T07:19:19;0.82;;;0.82;;
30593;SDS011;33199;47.590;8.300;2022-08-01T07:21:44;0.98;;;0.90;;
30593;SDS011;33199;47.590;8.300;2022-08-01T07:24:11;0.90;;;0.90;;
30593;SDS011;33199;47.590;8.300;2022-08-01T07:26:44;1.85;;;1.02;;
30593;SDS011;33199;47.590;8.300;2022-08-01T07:29:11;0.82;;;0.82;;
30593;SDS011;33199;47.590;8.300;2022-08-01T07:31:36;1.00;;;0.90;;
30593;SDS011;33199;47.590;8.300;2022-08-01T07:34:02;0.80;;;0.80;;
30593;SDS011;33199;47.590;8.300;2022-08-01T07:36:28;1.30;;;1.20;;
30593;SDS011;33199;47.590;8.300;2022-08-01T07:38:54;1.95;;;1.05;;
30593;SDS011;33199;47.590;8.300;2022-08-01T07:41:20;0.80;;;0.80;;
30593;SDS011;33199;47.590;8.300;2022-08-01T07:43:46;1.10;;;1.00;;
30593;SDS011;33199;47.590;8.300;2022-08-01T07:46:13;0.82;;;0.80;;
30593;SDS011;33199;47.590;8.300;2022-08-01T07:48:39;0.90;;;0.90;;
30593;SDS011;33199;47.590;8.300;2022-08-01T07:51:06;0.95;;;0.77;;
30593;SDS011;33199;47.590;8.300;2022-08-01T07:53:33;1.05;;;0.80;;
30593;SDS011;33199;47.590;8.300;2022-08-01T07:55:58;0.88;;;0.88;;
30593;SDS011;33199;47.590;8.300;2022-08-01T07:58:24;1.73;;;1.63;;
30593;SDS011;33199;47.590;8.300;2022-08-01T08:00:50;2.97;;;1.90;;
30593;SDS011;33199;47.590;8.300;2022-08-01T08:03:16;2.58;;;1.50;;
30593;SDS011;33199;47.590;8.300;2022-08-01T08:05:41;4.63;;;1.85;;
30593;SDS011;33199;47.590;8.300;2022-08-01T08:08:08;2.08;;;1.50;;
30593;SDS011;33199;47.590;8.300;2022-08-01T08:10:35;1.55;;;1.40;;
30593;SDS011;33199;47.590;8.300;2022-08-01T08:13:00;3.65;;;1.70;;
30593;SDS011;33199;47.590;8.300;2022-08-01T08:15:26;2.03;;;1.40;;
30593;SDS011;33199;47.590;8.300;2022-08-01T08:17:52;1.52;;;1.42;;
30593;SDS011;33199;47.590;8.300;2022-08-01T08:20:18;3.72;;;1.52;;
30593;SDS011;33199;47.590;8.300;2022-08-01T08:22:43;1.90;;;1.80;;
30593;SDS011;33199;47.590;8.300;2022-08-01T08:25:09;1.60;;;1.40;;
30593;SDS011;33199;47.590;8.300;2022-08-01T08:27:36;1.60;;;1.50;;
30593;SDS011;33199;47.590;8.300;2022-08-01T08:30:05;2.30;;;1.75;;
30593;SDS011;33199;47.590;8.300;2022-08-01T08:32:36;1.65;;;1.35;;
30593;SDS011;33199;47.590;8.300;2022-08-01T08:35:01;3.28;;;1.45;;
30593;SDS011;33199;47.590;8.300;2022-08-01T08:37:27;2.75;;;1.70;;
30593;SDS011;33199;47.590;8.300;2022-08-01T08:39:53;2.60;;;1.52;;
30593;SDS011;33199;47.590;8.300;2022-08-01T08:42:18;1.70;;;1.60;;
30593;SDS011;33199;47.590;8.300;2022-08-01T08:44:44;1.95;;;1.75;;
30593;SDS011;33199;47.590;8.300;2022-08-01T08:47:14;1.92;;;1.40;;
30593;SDS011;33199;47.590;8.300;2022-08-01T08:49:41;1.70;;;1.60;;
30593;SDS011;33199;47.590;8.300;2022-08-01T08:54:35;1.52;;;1.42;;
30593;SDS011;33199;47.590;8.300;2022-08-01T08:57:03;4.85;;;1.75;;
30593;SDS011;33199;47.590;8.300;2022-08-01T08:59:29;1.73;;;1.63;;
30593;SDS011;33199;47.590;8.300;2022-08-01T09:01:55;1.60;;;1.50;;
30593;SDS011;33199;47.590;8.300;2022-08-01T09:04:21;1.60;;;1.50;;
30593;SDS011;33199;47.590;8.300;2022-08-01T09:06:48;1.70;;;1.60;;
30593;SDS011;33199;47.590;8.300;2022-08-01T09:09:14;1.70;;;1.60;;
30593;SDS011;33199;47.590;8.300;2022-08-01T09:11:39;1.70;;;1.60;;
30593;SDS011;33199;47.590;8.300;2022-08-01T09:14:07;2.08;;;1.98;;
30593;SDS011;33199;47.590;8.300;2022-08-01T09:16:40;1.48;;;1.38;;
30593;SDS011;33199;47.590;8.300;2022-08-01T09:19:09;1.60;;;1.50;;
30593;SDS011;33199;47.590;8.300;2022-08-01T09:21:37;1.70;;;1.20;;
30593;SDS011;33199;47.590;8.300;2022-08-01T09:24:03;1.67;;;1.48;;
30593;SDS011;33199;47.590;8.300;2022-08-01T09:26:32;2.15;;;1.50;;
30593;SDS011;33199;47.590;8.300;2022-08-01T09:28:59;2.33;;;1.60;;
30593;SDS011;33199;47.590;8.300;2022-08-01T09:31:38;1.45;;;1.35;;
30593;SDS011;33199;47.590;8.300;2022-08-01T09:34:06;1.40;;;1.30;;
30593;SDS011;33199;47.590;8.300;2022-08-01T09:36:44;1.70;;;1.53;;
30593;SDS011;33199;47.590;8.300;2022-08-01T09:39:13;1.33;;;1.20;;
30593;SDS011;33199;47.590;8.300;2022-08-01T09:41:39;1.60;;;1.50;;
30593;SDS011;33199;47.590;8.300;2022-08-01T09:44:06;1.77;;;1.67;;
30593;SDS011;33199;47.590;8.300;2022-08-01T09:46:31;1.70;;;1.60;;
30593;SDS011;33199;47.590;8.300;2022-08-01T09:49:04;1.70;;;1.60;;
30593;SDS011;33199;47.590;8.300;2022-08-01T09:51:34;4.20;;;1.50;;
30593;SDS011;33199;47.590;8.300;2022-08-01T09:54:01;1.83;;;1.60;;
30593;SDS011;33199;47.590;8.300;2022-08-01T09:56:39;2.05;;;1.40;;
30593;SDS011;33199;47.590;8.300;2022-08-01T09:59:07;1.38;;;1.38;;
30593;SDS011;33199;47.590;8.300;2022-08-01T10:01:49;1.60;;;1.50;;
30593;SDS011;33199;47.590;8.300;2022-08-01T10:04:16;1.52;;;1.42;;
30593;SDS011;33199;47.590;8.300;2022-08-01T10:06:47;1.45;;;1.42;;
30593;SDS011;33199;47.590;8.300;2022-08-01T10:09:26;1.25;;;1.15;;
30593;SDS011;33199;47.590;8.300;2022-08-01T10:11:54;1.38;;;1.30;;
30593;SDS011;33199;47.590;8.300;2022-08-01T10:14:21;1.45;;;1.45;;
30593;SDS011;33199;47.590;8.300;2022-08-01T10:16:49;1.98;;;1.30;;
30593;SDS011;33199;47.590;8.300;2022-08-01T10:19:16;1.40;;;1.30;;
30593;SDS011;33199;47.590;8.300;2022-08-01T10:21:43;1.70;;;1.30;;
30593;SDS011;33199;47.590;8.300;2022-08-01T10:24:12;1.48;;;1.35;;
30593;SDS011;33199;47.590;8.300;2022-08-01T10:26:38;1.40;;;1.30;;
30593;SDS011;33199;47.590;8.300;2022-08-01T10:29:05;1.48;;;1.38;;
30593;SDS011;33199;47.590;8.300;2022-08-01T10:31:33;1.27;;;1.27;;
30593;SDS011;33199;47.590;8.300;2022-08-01T10:33:59;1.60;;;1.50;;
30593;SDS011;33199;47.590;8.300;2022-08-01T10:36:25;1.38;;;1.33;;
30593;SDS011;33199;47.590;8.300;2022-08-01T10:38:55;1.75;;;1.48;;
30593;SDS011;33199;47.590;8.300;2022-08-01T10:41:20;1.88;;;1.35;;
30593;SDS011;33199;47.590;8.300;2022-08-01T10:43:47;1.23;;;1.10;;
30593;SDS011;33199;47.590;8.300;2022-08-01T10:46:12;1.35;;;1.30;;
30593;SDS011;33199;47.590;8.300;2022-08-01T10:48:48;1.98;;;1.50;;
30593;SDS011;33199;47.590;8.300;2022-08-01T10:51:19;1.42;;;1.33;;
30593;SDS011;33199;47.590;8.300;2022-08-01T10:53:47;1.60;;;1.50;;
30593;SDS011;33199;47.590;8.300;2022-08-01T10:56:17;1.30;;;1.30;;
30593;SDS011;33199;47.590;8.300;2022-08-01T10:58:43;1.25;;;1.20;;
30593;SDS011;33199;47.590;8.300;2022-08-01T11:03:39;2.25;;;1.13;;
30593;SDS011;33199;47.590;8.300;2022-08-01T11:06:18;1.65;;;1.55;;
30593;SDS011;33199;47.590;8.300;2022-08-01T11:08:51;1.10;;;1.00;;
30593;SDS011;33199;47.590;8.300;2022-08-01T11:11:18;1.60;;;1.50;;
30593;SDS011;33199;47.590;8.300;2022-08-01T11:16:29;1.48;;;1.30;;
30593;SDS011;33199;47.590;8.300;2022-08-01T11:18:56;1.08;;;1.08;;
30593;SDS011;33199;47.590;8.300;2022-08-01T11:21:22;1.30;;;1.20;;
30593;SDS011;33199;47.590;8.300;2022-08-01T11:32:33;1.42;;;1.33;;
30593;SDS011;33199;47.590;8.300;2022-08-01T11:35:13;0.95;;;0.95;;
30593;SDS011;33199;47.590;8.300;2022-08-01T11:37:39;1.40;;;1.30;;
30593;SDS011;33199;47.590;8.300;2022-08-01T11:42:43;1.63;;;1.20;;
30593;SDS011;33199;47.590;8.300;2022-08-01T11:45:09;1.40;;;1.30;;
30593;SDS011;33199;47.590;8.300;2022-08-01T11:50:29;1.50;;;1.40;;
30593;SDS011;33199;47.590;8.300;2022-08-01T11:53:05;1.42;;;1.33;;
30593;SDS011;33199;47.590;8.300;2022-08-01T11:55:32;1.45;;;1.35;;
30593;SDS011;33199;47.590;8.300;2022-08-01T11:58:02;1.50;;;1.50;;
30593;SDS011;33199;47.590;8.300;2022-08-01T12:00:28;4.97;;;1.38;;
30593;SDS011;33199;47.590;8.300;2022-08-01T12:02:56;2.22;;;1.42;;
30593;SDS011;33199;47.590;8.300;2022-08-01T12:05:27;1.10;;;1.10;;
30593;SDS011;33199;47.590;8.300;2022-08-01T12:07:55;1.27;;;1.20;;
30593;SDS011;33199;47.590;8.300;2022-08-01T12:10:22;1.02;;;1.02;;
30593;SDS011;33199;47.590;8.300;2022-08-01T12:12:50;1.30;;;1.23;;
30593;SDS011;33199;47.590;8.300;2022-08-01T12:15:18;1.00;;;1.00;;
30593;SDS011;33199;47.590;8.300;2022-08-01T12:17:46;2.15;;;1.50;;
30593;SDS011;33199;47.590;8.300;2022-08-01T12:20:14;1.30;;;1.20;;
30593;SDS011;33199;47.590;8.300;2022-08-01T12:22:41;1.20;;;1.10;;
30593;SDS011;33199;47.590;8.300;2022-08-01T12:27:37;1.23;;;1.20;;
30593;SDS011;33199;47.590;8.300;2022-08-01T12:30:09;1.08;;;1.02;;
30593;SDS011;33199;47.590;8.300;2022-08-01T12:32:37;1.00;;;1.00;;
30593;SDS011;33199;47.590;8.300;2022-08-01T12:35:07;1.02;;;0.95;;
30593;SDS011;33199;47.590;8.300;2022-08-01T12:37:50;1.35;;;1.10;;
30593;SDS011;33199;47.590;8.300;2022-08-01T12:40:27;1.08;;;1.08;;
30593;SDS011;33199;47.590;8.300;2022-08-01T12:42:58;1.00;;;1.00;;
30593;SDS011;33199;47.590;8.300;2022-08-01T12:45:29;1.52;;;1.13;;
30593;SDS011;33199;47.590;8.300;2022-08-01T12:47:58;1.05;;;0.95;;
30593;SDS011;33199;47.590;8.300;2022-08-01T12:50:26;1.20;;;1.20;;
30593;SDS011;33199;47.590;8.300;2022-08-01T12:52:54;1.05;;;1.05;;
30593;SDS011;33199;47.590;8.300;2022-08-01T12:55:21;1.15;;;1.13;;
30593;SDS011;33199;47.590;8.300;2022-08-01T13:00:20;0.95;;;0.90;;
30593;SDS011;33199;47.590;8.300;2022-08-01T13:02:48;1.20;;;1.10;;
30593;SDS011;33199;47.590;8.300;2022-08-01T13:05:27;0.80;;;0.80;;
30593;SDS011;33199;47.590;8.300;2022-08-01T13:07:52;1.10;;;1.10;;
30593;SDS011;33199;47.590;8.300;2022-08-01T13:10:29;1.10;;;1.00;;
30593;SDS011;33199;47.590;8.300;2022-08-01T13:12:56;0.83;;;0.83;;
30593;SDS011;33199;47.590;8.300;2022-08-01T13:17:57;0.93;;;0.93;;
30593;SDS011;33199;47.590;8.300;2022-08-01T13:20:24;0.90;;;0.90;;
30593;SDS011;33199;47.590;8.300;2022-08-01T13:23:11;0.90;;;0.90;;
30593;SDS011;33199;47.590;8.300;2022-08-01T13:25:47;1.25;;;1.10;;
30593;SDS011;33199;47.590;8.300;2022-08-01T13:28:23;1.17;;;1.05;;
30593;SDS011;33199;47.590;8.300;2022-08-01T13:30:54;0.88;;;0.88;;
30593;SDS011;33199;47.590;8.300;2022-08-01T13:33:20;3.47;;;0.98;;
30593;SDS011;33199;47.590;8.300;2022-08-01T13:35:45;3.33;;;1.00;;
30593;SDS011;33199;47.590;8.300;2022-08-01T13:38:12;0.90;;;0.90;;
30593;SDS011;33199;47.590;8.300;2022-08-01T13:40:38;1.15;;;1.05;;
30593;SDS011;33199;47.590;8.300;2022-08-01T13:43:04;1.05;;;1.05;;
30593;SDS011;33199;47.590;8.300;2022-08-01T13:45:29;0.90;;;0.90;;
30593;SDS011;33199;47.590;8.300;2022-08-01T13:47:55;1.02;;;1.02;;
30593;SDS011;33199;47.590;8.300;2022-08-01T13:50:20;0.82;;;0.82;;
30593;SDS011;33199;47.590;8.300;2022-08-01T13:52:46;0.85;;;0.85;;
30593;SDS011;33199;47.590;8.300;2022-08-01T13:55:11;0.90;;;0.90;;
30593;SDS011;33199;47.590;8.300;2022-08-01T13:57:37;0.88;;;0.88;;
30593;SDS011;33199;47.590;8.300;2022-08-01T14:00:04;1.17;;;0.80;;
30593;SDS011;33199;47.590;8.300;2022-08-01T14:02:31;0.80;;;0.80;;
30593;SDS011;33199;47.590;8.300;2022-08-01T14:04:56;2.40;;;0.80;;
30593;SDS011;33199;47.590;8.300;2022-08-01T14:07:23;1.38;;;0.98;;
30593;SDS011;33199;47.590;8.300;2022-08-01T14:09:49;1.75;;;1.15;;
30593;SDS011;33199;47.590;8.300;2022-08-01T14:12:15;1.00;;;0.90;;
30593;SDS011;33199;47.590;8.300;2022-08-01T14:14:40;0.82;;;0.80;;
30593;SDS011;33199;47.590;8.300;2022-08-01T14:17:06;0.73;;;0.73;;
30593;SDS011;33199;47.590;8.300;2022-08-01T14:19:31;0.88;;;0.88;;
30593;SDS011;33199;47.590;8.300;2022-08-01T14:21:57;0.90;;;0.90;;
30593;SDS011;33199;47.590;8.300;2022-08-01T14:24:23;0.98;;;0.95;;
30593;SDS011;33199;47.590;8.300;2022-08-01T14:26:51;2.55;;;0.93;;
30593;SDS011;33199;47.590;8.300;2022-08-01T14:29:16;0.80;;;0.80;;
30593;SDS011;33199;47.590;8.300;2022-08-01T14:31:42;1.05;;;1.02;;
30593;SDS011;33199;47.590;8.300;2022-08-01T14:34:07;2.10;;;1.00;;
30593;SDS011;33199;47.590;8.300;2022-08-01T14:36:33;1.02;;;1.02;;
30593;SDS011;33199;47.590;8.300;2022-08-01T14:38:59;0.90;;;0.90;;
30593;SDS011;33199;47.590;8.300;2022-08-01T14:41:24;1.00;;;1.00;;
30593;SDS011;33199;47.590;8.300;2022-08-01T14:43:50;0.80;;;0.80;;
30593;SDS011;33199;47.590;8.300;2022-08-01T14:46:15;0.70;;;0.70;;
30593;SDS011;33199;47.590;8.300;2022-08-01T14:48:41;0.98;;;0.93;;
30593;SDS011;33199;47.590;8.300;2022-08-01T14:51:07;0.80;;;0.80;;
30593;SDS011;33199;47.590;8.300;2022-08-01T14:53:33;0.70;;;0.70;;
30593;SDS011;33199;47.590;8.300;2022-08-01T14:56:03;0.80;;;0.80;;
30593;SDS011;33199;47.590;8.300;2022-08-01T14:58:29;0.93;;;0.93;;
30593;SDS011;33199;47.590;8.300;2022-08-01T15:00:54;0.63;;;0.63;;
30593;SDS011;33199;47.590;8.300;2022-08-01T15:03:20;0.73;;;0.73;;
30593;SDS011;33199;47.590;8.300;2022-08-01T15:05:46;0.90;;;0.90;;
30593;SDS011;33199;47.590;8.300;2022-08-01T15:08:11;0.60;;;0.60;;
30593;SDS011;33199;47.590;8.300;2022-08-01T15:10:37;0.88;;;0.80;;
30593;SDS011;33199;47.590;8.300;2022-08-01T15:13:03;1.10;;;1.00;;
30593;SDS011;33199;47.590;8.300;2022-08-01T15:15:28;1.00;;;0.80;;
30593;SDS011;33199;47.590;8.300;2022-08-01T15:17:54;0.80;;;0.80;;
30593;SDS011;33199;47.590;8.300;2022-08-01T15:20:20;0.90;;;0.90;;
30593;SDS011;33199;47.590;8.300;2022-08-01T15:22:45;0.60;;;0.60;;
30593;SDS011;33199;47.590;8.300;2022-08-01T15:25:12;1.02;;;1.02;;
30593;SDS011;33199;47.590;8.300;2022-08-01T15:27:38;0.80;;;0.80;;
30593;SDS011;33199;47.590;8.300;2022-08-01T15:30:04;1.00;;;0.80;;
30593;SDS011;33199;47.590;8.300;2022-08-01T15:32:29;0.98;;;0.80;;
30593;SDS011;33199;47.590;8.300;2022-08-01T15:34:55;0.93;;;0.93;;
30593;SDS011;33199;47.590;8.300;2022-08-01T15:37:21;0.80;;;0.80;;
30593;SDS011;33199;47.590;8.300;2022-08-01T15:39:46;0.90;;;0.90;;